Portada
METAR-TAF:

METAR-TAF

Aeroports :

Churchill Falls, Terranova i Labrador, Canadà

latitud: 53-33N, longitud: 064-06W, altitud: 440 m

Observació

L'informe es va fer fa 1 hora i 15 minuts, a les 21:00 UTC
Vent 6 kt del Oest/Sud-Oest, variant entre Sud/Sud-Oest i Nord-Oest
Temperatura 11°C
Humitat 58%
Pressió 1000 hPa
Visibilitat: 14.5 km
Cel clar

METAR: CZUM 012100Z AUTO 25006KT 200V310 9SM CLR 11/03 A2954 RMK SLP016 DENSITY ALT 1700FT

Hora: 19:15 (22:15 UTC)

Pronòstic

L'informe es va fer fa 2 hores i 29 minuts, a les 19:46 UTC
Pronòstic vàlid del 01 a les 20 UTC al 02 a les 08 UTC
Vent 12 kt del Oest/Sud-Oest amb ràfegues de 22 kt
Visibilitat: 10 km
Cel ennuvolat a una alçada de 5000 ft
Evolucionant progressivament
l' 02 a les 00 UTC al 02 a les 02 UTC
Vent 5 kt del Oest/Sud-Oest
Cel clar

TAF: CZUM 011946Z 0120/0208 25012G22KT P6SM BKN050 BECMG 0200/0202 25005KT SKC RMK FCST BASED ON AUTO OBS. NXT FCST BY 020200Z

Observacions i pronòstics meteorològics de més de 4000 aeroports (METAR i TAF).

Les estacions disponibles són els punts grocs i vermells al mapa.

Posi el ratolí al punt desitjat per veure el nom de l'estació.

Feu clic per veure les observacions i els pronòstics meteorològics.

Per canviar el mapa: feu clic els botons verds amb una creu de color negre per apropar; al botó verd amb un guió per allunyar la imatge; o en les fletxes verdes per a mapes adjacents.


METAR-TAF: